sensor_id;sensor_type;location;lat;lon;timestamp;pressure;altitude;pressure_sealevel;temperature;humidity
34586;BME280;20816;50.950;11.108;2023-07-09T00:01:18;98746.00;;;21.40;67.96
34586;BME280;20816;50.950;11.108;2023-07-09T00:03:46;98739.06;;;21.38;68.71
34586;BME280;20816;50.950;11.108;2023-07-09T00:06:18;98745.53;;;21.34;68.31
34586;BME280;20816;50.950;11.108;2023-07-09T00:08:48;98740.56;;;21.42;67.94
34586;BME280;20816;50.950;11.108;2023-07-09T00:11:16;98754.97;;;21.53;67.59
34586;BME280;20816;50.950;11.108;2023-07-09T00:13:43;98752.78;;;21.60;67.54
34586;BME280;20816;50.950;11.108;2023-07-09T00:16:13;98750.00;;;21.62;67.60
34586;BME280;20816;50.950;11.108;2023-07-09T00:18:40;98750.97;;;21.61;67.43
34586;BME280;20816;50.950;11.108;2023-07-09T00:21:07;98753.38;;;21.51;67.54
34586;BME280;20816;50.950;11.108;2023-07-09T00:23:34;98755.00;;;21.39;68.13
34586;BME280;20816;50.950;11.108;2023-07-09T00:26:00;98756.53;;;21.29;68.44
34586;BME280;20816;50.950;11.108;2023-07-09T00:28:30;98760.56;;;21.36;67.89
34586;BME280;20816;50.950;11.108;2023-07-09T00:30:57;98764.25;;;21.34;67.78
34586;BME280;20816;50.950;11.108;2023-07-09T00:33:23;98753.28;;;21.38;66.88
34586;BME280;20816;50.950;11.108;2023-07-09T00:35:58;98751.84;;;21.47;67.36
34586;BME280;20816;50.950;11.108;2023-07-09T00:38:26;98762.13;;;21.24;69.46
34586;BME280;20816;50.950;11.108;2023-07-09T00:43:29;98763.00;;;20.96;70.14
34586;BME280;20816;50.950;11.108;2023-07-09T00:49:03;98765.09;;;20.91;70.33
34586;BME280;20816;50.950;11.108;2023-07-09T00:51:37;98763.56;;;20.87;70.42
34586;BME280;20816;50.950;11.108;2023-07-09T00:54:31;98762.41;;;20.77;71.64
34586;BME280;20816;50.950;11.108;2023-07-09T00:57:12;98760.66;;;20.62;72.04
34586;BME280;20816;50.950;11.108;2023-07-09T00:59:40;98759.41;;;20.53;72.03
34586;BME280;20816;50.950;11.108;2023-07-09T01:02:08;98758.38;;;20.40;73.19
34586;BME280;20816;50.950;11.108;2023-07-09T01:04:35;98764.38;;;20.29;73.35
34586;BME280;20816;50.950;11.108;2023-07-09T01:07:02;98769.09;;;20.24;73.68
34586;BME280;20816;50.950;11.108;2023-07-09T01:09:30;98773.41;;;20.11;73.94
34586;BME280;20816;50.950;11.108;2023-07-09T01:12:22;98767.94;;;19.98;74.10
34586;BME280;20816;50.950;11.108;2023-07-09T01:14:51;98767.97;;;19.82;74.49
34586;BME280;20816;50.950;11.108;2023-07-09T01:17:20;98769.69;;;19.83;74.87
34586;BME280;20816;50.950;11.108;2023-07-09T01:19:50;98766.06;;;19.84;74.62
34586;BME280;20816;50.950;11.108;2023-07-09T01:22:18;98764.34;;;19.83;74.01
34586;BME280;20816;50.950;11.108;2023-07-09T01:24:50;98769.06;;;19.78;74.80
34586;BME280;20816;50.950;11.108;2023-07-09T01:27:42;98768.63;;;19.70;75.07
34586;BME280;20816;50.950;11.108;2023-07-09T01:30:12;98769.78;;;19.66;75.27
34586;BME280;20816;50.950;11.108;2023-07-09T01:32:41;98766.75;;;19.56;74.91
34586;BME280;20816;50.950;11.108;2023-07-09T01:35:14;98767.91;;;19.51;75.67
34586;BME280;20816;50.950;11.108;2023-07-09T01:37:42;98771.88;;;19.44;75.68
34586;BME280;20816;50.950;11.108;2023-07-09T01:40:11;98767.06;;;19.50;75.37
34586;BME280;20816;50.950;11.108;2023-07-09T01:42:57;98766.88;;;19.38;76.35
34586;BME280;20816;50.950;11.108;2023-07-09T01:45:28;98767.03;;;19.35;75.87
34586;BME280;20816;50.950;11.108;2023-07-09T01:47:55;98762.59;;;19.51;75.03
34586;BME280;20816;50.950;11.108;2023-07-09T01:50:22;98764.97;;;19.57;75.30
34586;BME280;20816;50.950;11.108;2023-07-09T01:52:51;98762.28;;;19.57;75.74
34586;BME280;20816;50.950;11.108;2023-07-09T01:55:18;98761.81;;;19.49;76.65
34586;BME280;20816;50.950;11.108;2023-07-09T01:57:45;98756.19;;;19.38;76.54
34586;BME280;20816;50.950;11.108;2023-07-09T02:00:15;98762.75;;;19.32;76.59
34586;BME280;20816;50.950;11.108;2023-07-09T02:02:43;98760.81;;;19.18;76.96
34586;BME280;20816;50.950;11.108;2023-07-09T02:05:11;98762.88;;;19.13;77.68
34586;BME280;20816;50.950;11.108;2023-07-09T02:07:39;98765.25;;;19.02;77.72
34586;BME280;20816;50.950;11.108;2023-07-09T02:10:07;98762.69;;;19.00;77.94
34586;BME280;20816;50.950;11.108;2023-07-09T02:12:34;98759.69;;;19.07;77.34
34586;BME280;20816;50.950;11.108;2023-07-09T02:15:01;98765.72;;;19.10;76.29
34586;BME280;20816;50.950;11.108;2023-07-09T02:17:27;98761.59;;;19.20;75.69
34586;BME280;20816;50.950;11.108;2023-07-09T02:19:54;98760.59;;;19.23;75.81
34586;BME280;20816;50.950;11.108;2023-07-09T02:22:21;98767.22;;;19.31;74.77
34586;BME280;20816;50.950;11.108;2023-07-09T02:24:47;98761.28;;;19.26;74.70
34586;BME280;20816;50.950;11.108;2023-07-09T02:27:16;98759.66;;;19.24;74.47
34586;BME280;20816;50.950;11.108;2023-07-09T02:29:43;98759.47;;;19.43;74.07
34586;BME280;20816;50.950;11.108;2023-07-09T02:32:19;98764.81;;;19.43;73.94
34586;BME280;20816;50.950;11.108;2023-07-09T02:34:47;98763.59;;;19.32;75.02
34586;BME280;20816;50.950;11.108;2023-07-09T02:37:21;98765.38;;;19.16;76.41
34586;BME280;20816;50.950;11.108;2023-07-09T02:39:48;98775.75;;;19.05;77.01
34586;BME280;20816;50.950;11.108;2023-07-09T02:42:17;98773.06;;;19.05;76.96
34586;BME280;20816;50.950;11.108;2023-07-09T02:44:45;98788.78;;;18.94;77.53
34586;BME280;20816;50.950;11.108;2023-07-09T02:47:13;98773.03;;;18.89;76.72
34586;BME280;20816;50.950;11.108;2023-07-09T02:49:40;98775.94;;;18.85;77.21
34586;BME280;20816;50.950;11.108;2023-07-09T02:52:08;98783.09;;;18.84;76.63
34586;BME280;20816;50.950;11.108;2023-07-09T02:54:35;98779.88;;;18.77;76.58
34586;BME280;20816;50.950;11.108;2023-07-09T02:57:02;98780.09;;;18.73;76.77
34586;BME280;20816;50.950;11.108;2023-07-09T02:59:28;98787.59;;;18.65;77.82
34586;BME280;20816;50.950;11.108;2023-07-09T03:01:56;98774.09;;;18.69;77.44
34586;BME280;20816;50.950;11.108;2023-07-09T03:04:23;98783.09;;;18.67;77.52
34586;BME280;20816;50.950;11.108;2023-07-09T03:06:50;98781.75;;;18.75;77.34
34586;BME280;20816;50.950;11.108;2023-07-09T03:09:17;98783.56;;;18.75;77.57
34586;BME280;20816;50.950;11.108;2023-07-09T03:11:44;98780.34;;;18.68;77.76
34586;BME280;20816;50.950;11.108;2023-07-09T03:14:11;98778.47;;;18.70;77.99
34586;BME280;20816;50.950;11.108;2023-07-09T03:16:37;98783.47;;;18.76;77.68
34586;BME280;20816;50.950;11.108;2023-07-09T03:19:04;98786.16;;;18.76;77.55
34586;BME280;20816;50.950;11.108;2023-07-09T03:21:31;98779.88;;;18.77;78.22
34586;BME280;20816;50.950;11.108;2023-07-09T03:23:59;98778.16;;;18.76;78.24
34586;BME280;20816;50.950;11.108;2023-07-09T03:26:26;98794.78;;;18.82;76.95
34586;BME280;20816;50.950;11.108;2023-07-09T03:28:54;98782.06;;;18.87;77.56
34586;BME280;20816;50.950;11.108;2023-07-09T03:31:22;98781.03;;;18.89;77.37
34586;BME280;20816;50.950;11.108;2023-07-09T03:33:50;98783.31;;;18.80;78.54
34586;BME280;20816;50.950;11.108;2023-07-09T03:36:18;98785.59;;;18.70;78.26
34586;BME280;20816;50.950;11.108;2023-07-09T03:38:47;98781.00;;;18.73;78.44
34586;BME280;20816;50.950;11.108;2023-07-09T03:41:14;98781.13;;;18.70;78.51
34586;BME280;20816;50.950;11.108;2023-07-09T03:43:41;98780.94;;;18.56;78.43
34586;BME280;20816;50.950;11.108;2023-07-09T03:46:08;98787.22;;;18.55;78.59
34586;BME280;20816;50.950;11.108;2023-07-09T03:48:34;98788.63;;;18.62;78.01
34586;BME280;20816;50.950;11.108;2023-07-09T03:51:01;98791.66;;;18.73;77.49
34586;BME280;20816;50.950;11.108;2023-07-09T03:53:27;98791.31;;;18.80;77.33
34586;BME280;20816;50.950;11.108;2023-07-09T03:55:55;98792.41;;;18.93;77.29
34586;BME280;20816;50.950;11.108;2023-07-09T03:58:24;98786.22;;;18.92;78.70
34586;BME280;20816;50.950;11.108;2023-07-09T04:00:52;98796.00;;;18.92;78.39
34586;BME280;20816;50.950;11.108;2023-07-09T04:03:21;98793.34;;;18.92;78.76
34586;BME280;20816;50.950;11.108;2023-07-09T04:05:49;98794.69;;;18.83;79.90
34586;BME280;20816;50.950;11.108;2023-07-09T04:08:16;98790.75;;;18.73;80.45
34586;BME280;20816;50.950;11.108;2023-07-09T04:10:42;98796.06;;;18.73;79.84
34586;BME280;20816;50.950;11.108;2023-07-09T04:13:09;98793.28;;;18.76;80.16
34586;BME280;20816;50.950;11.108;2023-07-09T04:15:36;98803.34;;;18.87;79.68
34586;BME280;20816;50.950;11.108;2023-07-09T04:18:03;98797.47;;;18.97;79.68
34586;BME280;20816;50.950;11.108;2023-07-09T04:20:30;98794.94;;;19.12;78.30
34586;BME280;20816;50.950;11.108;2023-07-09T04:22:57;98800.03;;;19.16;78.82
34586;BME280;20816;50.950;11.108;2023-07-09T04:25:23;98802.38;;;19.22;78.30
34586;BME280;20816;50.950;11.108;2023-07-09T04:27:50;98801.78;;;19.33;78.35
34586;BME280;20816;50.950;11.108;2023-07-09T04:30:17;98799.56;;;19.41;78.29
34586;BME280;20816;50.950;11.108;2023-07-09T04:32:44;98807.72;;;19.54;78.26
34586;BME280;20816;50.950;11.108;2023-07-09T04:35:12;98800.72;;;19.69;77.82
34586;BME280;20816;50.950;11.108;2023-07-09T04:37:40;98809.06;;;19.78;78.26
34586;BME280;20816;50.950;11.108;2023-07-09T04:40:08;98798.06;;;19.84;78.92
34586;BME280;20816;50.950;11.108;2023-07-09T04:42:37;98799.53;;;20.06;77.33
34586;BME280;20816;50.950;11.108;2023-07-09T04:45:09;98800.94;;;20.27;77.73
34586;BME280;20816;50.950;11.108;2023-07-09T04:47:36;98788.44;;;20.43;77.84
34586;BME280;20816;50.950;11.108;2023-07-09T04:50:05;98795.19;;;20.65;78.08
34586;BME280;20816;50.950;11.108;2023-07-09T04:52:32;98796.00;;;20.81;77.63
34586;BME280;20816;50.950;11.108;2023-07-09T04:54:59;98793.34;;;20.95;77.89
34586;BME280;20816;50.950;11.108;2023-07-09T04:57:27;98793.94;;;21.15;77.77
34586;BME280;20816;50.950;11.108;2023-07-09T04:59:54;98793.66;;;21.34;78.18
34586;BME280;20816;50.950;11.108;2023-07-09T05:02:21;98802.38;;;21.51;77.70
34586;BME280;20816;50.950;11.108;2023-07-09T05:04:48;98792.97;;;21.73;77.94
34586;BME280;20816;50.950;11.108;2023-07-09T05:07:14;98803.06;;;21.96;77.41
34586;BME280;20816;50.950;11.108;2023-07-09T05:09:41;98789.25;;;22.17;77.30
34586;BME280;20816;50.950;11.108;2023-07-09T05:12:08;98791.81;;;22.45;76.80
34586;BME280;20816;50.950;11.108;2023-07-09T05:14:35;98799.03;;;22.70;75.65
34586;BME280;20816;50.950;11.108;2023-07-09T05:17:02;98803.81;;;22.92;73.54
34586;BME280;20816;50.950;11.108;2023-07-09T05:19:29;98794.38;;;23.12;72.13
34586;BME280;20816;50.950;11.108;2023-07-09T05:21:55;98803.19;;;23.27;71.60
34586;BME280;20816;50.950;11.108;2023-07-09T05:24:22;98805.53;;;23.44;70.29
34586;BME280;20816;50.950;11.108;2023-07-09T05:26:51;98811.66;;;23.71;70.14
34586;BME280;20816;50.950;11.108;2023-07-09T05:29:18;98811.88;;;24.05;68.93
34586;BME280;20816;50.950;11.108;2023-07-09T05:31:45;98817.75;;;24.47;67.50
34586;BME280;20816;50.950;11.108;2023-07-09T05:34:12;98812.03;;;24.86;66.36
34586;BME280;20816;50.950;11.108;2023-07-09T05:36:39;98815.53;;;25.11;65.27
34586;BME280;20816;50.950;11.108;2023-07-09T05:39:05;98811.63;;;25.37;64.55
34586;BME280;20816;50.950;11.108;2023-07-09T05:41:32;98816.31;;;25.58;60.89
34586;BME280;20816;50.950;11.108;2023-07-09T05:43:58;98814.97;;;25.86;61.46
34586;BME280;20816;50.950;11.108;2023-07-09T05:46:25;98818.94;;;26.14;60.34
34586;BME280;20816;50.950;11.108;2023-07-09T05:48:52;98817.69;;;26.29;58.64
34586;BME280;20816;50.950;11.108;2023-07-09T05:51:19;98817.13;;;26.58;57.82
34586;BME280;20816;50.950;11.108;2023-07-09T05:53:47;98810.38;;;26.84;57.25
34586;BME280;20816;50.950;11.108;2023-07-09T05:56:14;98818.72;;;27.13;56.95
34586;BME280;20816;50.950;11.108;2023-07-09T05:58:41;98805.78;;;27.37;57.55
34586;BME280;20816;50.950;11.108;2023-07-09T06:01:07;98816.81;;;27.55;57.62
34586;BME280;20816;50.950;11.108;2023-07-09T06:03:34;98815.19;;;27.74;57.32
34586;BME280;20816;50.950;11.108;2023-07-09T06:06:01;98811.94;;;27.70;57.06
34586;BME280;20816;50.950;11.108;2023-07-09T06:08:28;98807.44;;;27.59;55.68
34586;BME280;20816;50.950;11.108;2023-07-09T06:10:59;98809.69;;;27.85;56.80
34586;BME280;20816;50.950;11.108;2023-07-09T06:13:27;98810.31;;;28.08;55.60
34586;BME280;20816;50.950;11.108;2023-07-09T06:15:54;98807.22;;;28.22;55.39
34586;BME280;20816;50.950;11.108;2023-07-09T06:18:22;98813.25;;;28.45;55.69
34586;BME280;20816;50.950;11.108;2023-07-09T06:20:50;98799.91;;;28.92;55.32
34586;BME280;20816;50.950;11.108;2023-07-09T06:23:19;98809.34;;;29.35;54.69
34586;BME280;20816;50.950;11.108;2023-07-09T06:25:46;98807.88;;;29.59;54.25
34586;BME280;20816;50.950;11.108;2023-07-09T06:28:18;98810.47;;;29.79;53.55
34586;BME280;20816;50.950;11.108;2023-07-09T06:30:46;98807.34;;;29.83;53.15
34586;BME280;20816;50.950;11.108;2023-07-09T06:33:14;98812.81;;;29.74;53.51
34586;BME280;20816;50.950;11.108;2023-07-09T06:35:49;98813.84;;;29.91;52.45
34586;BME280;20816;50.950;11.108;2023-07-09T06:38:16;98817.03;;;30.13;51.92
34586;BME280;20816;50.950;11.108;2023-07-09T06:40:43;98821.22;;;30.08;51.10
34586;BME280;20816;50.950;11.108;2023-07-09T06:43:10;98823.78;;;30.27;50.83
34586;BME280;20816;50.950;11.108;2023-07-09T06:45:37;98821.84;;;30.37;51.65
34586;BME280;20816;50.950;11.108;2023-07-09T06:48:04;98826.31;;;30.38;51.13
34586;BME280;20816;50.950;11.108;2023-07-09T06:50:34;98822.44;;;29.86;51.70
34586;BME280;20816;50.950;11.108;2023-07-09T06:53:01;98826.31;;;29.83;52.90
34586;BME280;20816;50.950;11.108;2023-07-09T06:55:28;98828.84;;;30.22;51.62
34586;BME280;20816;50.950;11.108;2023-07-09T06:57:55;98828.25;;;30.64;51.04
34586;BME280;20816;50.950;11.108;2023-07-09T07:00:21;98820.22;;;31.16;50.46
34586;BME280;20816;50.950;11.108;2023-07-09T07:02:48;98827.16;;;31.28;50.21
34586;BME280;20816;50.950;11.108;2023-07-09T07:05:15;98826.69;;;31.41;50.13
34586;BME280;20816;50.950;11.108;2023-07-09T07:07:42;98829.97;;;31.44;49.57
34586;BME280;20816;50.950;11.108;2023-07-09T07:10:08;98831.84;;;31.26;49.48
34586;BME280;20816;50.950;11.108;2023-07-09T07:12:44;98824.59;;;31.52;49.41
34586;BME280;20816;50.950;11.108;2023-07-09T07:15:13;98818.56;;;31.75;49.23
34586;BME280;20816;50.950;11.108;2023-07-09T07:17:40;98825.16;;;31.38;48.58
34586;BME280;20816;50.950;11.108;2023-07-09T07:20:09;98824.66;;;31.95;47.41
34586;BME280;20816;50.950;11.108;2023-07-09T07:22:37;98824.09;;;31.91;47.16
34586;BME280;20816;50.950;11.108;2023-07-09T07:25:06;98824.28;;;32.40;47.04
34586;BME280;20816;50.950;11.108;2023-07-09T07:27:33;98825.47;;;32.38;47.32
34586;BME280;20816;50.950;11.108;2023-07-09T07:30:00;98828.47;;;32.85;47.19
34586;BME280;20816;50.950;11.108;2023-07-09T07:32:27;98830.63;;;32.81;46.86
34586;BME280;20816;50.950;11.108;2023-07-09T07:34:54;98830.53;;;32.99;45.91
34586;BME280;20816;50.950;11.108;2023-07-09T07:37:21;98821.63;;;33.30;45.72
34586;BME280;20816;50.950;11.108;2023-07-09T07:39:48;98834.94;;;33.08;46.01
34586;BME280;20816;50.950;11.108;2023-07-09T07:42:15;98842.09;;;33.42;45.83
34586;BME280;20816;50.950;11.108;2023-07-09T07:44:42;98829.91;;;33.69;45.79
34586;BME280;20816;50.950;11.108;2023-07-09T07:47:09;98832.19;;;33.49;45.98
34586;BME280;20816;50.950;11.108;2023-07-09T07:49:36;98827.34;;;33.76;45.45
34586;BME280;20816;50.950;11.108;2023-07-09T07:52:03;98831.28;;;33.73;46.35
34586;BME280;20816;50.950;11.108;2023-07-09T07:54:30;98835.84;;;33.97;45.50
34586;BME280;20816;50.950;11.108;2023-07-09T07:57:00;98831.19;;;34.06;44.91
34586;BME280;20816;50.950;11.108;2023-07-09T07:59:27;98831.75;;;33.85;45.55
34586;BME280;20816;50.950;11.108;2023-07-09T08:01:54;98836.97;;;34.42;45.34
34586;BME280;20816;50.950;11.108;2023-07-09T08:04:20;98824.69;;;34.46;44.73
34586;BME280;20816;50.950;11.108;2023-07-09T08:06:47;98827.63;;;34.05;44.75
34586;BME280;20816;50.950;11.108;2023-07-09T08:09:15;98818.94;;;34.64;44.91
34586;BME280;20816;50.950;11.108;2023-07-09T08:11:42;98829.88;;;34.24;43.79
34586;BME280;20816;50.950;11.108;2023-07-09T08:14:09;98822.31;;;34.35;44.34
34586;BME280;20816;50.950;11.108;2023-07-09T08:16:36;98819.06;;;34.70;44.30
34586;BME280;20816;50.950;11.108;2023-07-09T08:19:03;98819.94;;;34.85;43.85
34586;BME280;20816;50.950;11.108;2023-07-09T08:21:29;98812.78;;;35.07;43.26
34586;BME280;20816;50.950;11.108;2023-07-09T08:23:56;98813.91;;;35.51;42.75
34586;BME280;20816;50.950;11.108;2023-07-09T08:26:23;98813.38;;;36.00;41.80
34586;BME280;20816;50.950;11.108;2023-07-09T08:28:51;98815.00;;;36.30;41.20
34586;BME280;20816;50.950;11.108;2023-07-09T08:31:18;98806.97;;;36.65;41.48
34586;BME280;20816;50.950;11.108;2023-07-09T08:33:44;98811.47;;;35.85;41.72
34586;BME280;20816;50.950;11.108;2023-07-09T08:36:11;98805.66;;;36.25;40.81
34586;BME280;20816;50.950;11.108;2023-07-09T08:38:37;98804.78;;;36.03;41.95
34586;BME280;20816;50.950;11.108;2023-07-09T08:46:32;98800.50;;;36.66;41.29
34586;BME280;20816;50.950;11.108;2023-07-09T08:49:03;98797.88;;;36.58;39.78
34586;BME280;20816;50.950;11.108;2023-07-09T08:51:38;98800.53;;;36.72;38.77
34586;BME280;20816;50.950;11.108;2023-07-09T08:54:15;98796.03;;;37.08;37.83
34586;BME280;20816;50.950;11.108;2023-07-09T08:56:44;98795.22;;;37.35;38.67
34586;BME280;20816;50.950;11.108;2023-07-09T08:59:14;98798.66;;;37.22;39.39
34586;BME280;20816;50.950;11.108;2023-07-09T09:01:52;98795.75;;;37.24;39.17
34586;BME280;20816;50.950;11.108;2023-07-09T09:06:52;98790.56;;;37.64;39.54
34586;BME280;20816;50.950;11.108;2023-07-09T09:09:32;98798.75;;;37.92;39.19
34586;BME280;20816;50.950;11.108;2023-07-09T09:12:15;98796.28;;;37.69;39.37
34586;BME280;20816;50.950;11.108;2023-07-09T09:14:48;98799.91;;;37.76;39.00
34586;BME280;20816;50.950;11.108;2023-07-09T09:17:20;98799.97;;;37.54;37.85
34586;BME280;20816;50.950;11.108;2023-07-09T09:19:59;98801.28;;;37.93;38.61
34586;BME280;20816;50.950;11.108;2023-07-09T09:22:36;98806.34;;;38.37;38.19
34586;BME280;20816;50.950;11.108;2023-07-09T09:25:27;98798.84;;;38.73;37.52
34586;BME280;20816;50.950;11.108;2023-07-09T09:27:55;98797.84;;;39.13;37.78
34586;BME280;20816;50.950;11.108;2023-07-09T09:30:24;98795.25;;;39.51;37.12
34586;BME280;20816;50.950;11.108;2023-07-09T09:32:55;98807.44;;;38.56;37.80
34586;BME280;20816;50.950;11.108;2023-07-09T09:35:28;98795.09;;;39.27;37.28
34586;BME280;20816;50.950;11.108;2023-07-09T09:37:57;98807.56;;;39.22;36.88
34586;BME280;20816;50.950;11.108;2023-07-09T09:40:26;98809.44;;;39.02;37.30
34586;BME280;20816;50.950;11.108;2023-07-09T09:42:56;98802.44;;;38.80;37.43
34586;BME280;20816;50.950;11.108;2023-07-09T09:45:31;98810.50;;;38.88;36.32
34586;BME280;20816;50.950;11.108;2023-07-09T09:48:00;98806.69;;;39.02;35.77
34586;BME280;20816;50.950;11.108;2023-07-09T09:50:32;98804.16;;;39.40;35.12
34586;BME280;20816;50.950;11.108;2023-07-09T09:52:59;98799.69;;;39.46;35.11
34586;BME280;20816;50.950;11.108;2023-07-09T09:55:30;98808.81;;;39.33;36.41
34586;BME280;20816;50.950;11.108;2023-07-09T09:57:59;98807.75;;;39.08;35.46
34586;BME280;20816;50.950;11.108;2023-07-09T10:00:27;98804.19;;;39.27;33.96
34586;BME280;20816;50.950;11.108;2023-07-09T10:03:00;98793.88;;;39.94;34.62
34586;BME280;20816;50.950;11.108;2023-07-09T10:05:39;98803.00;;;40.01;33.93
34586;BME280;20816;50.950;11.108;2023-07-09T10:08:14;98802.94;;;40.59;33.43
34586;BME280;20816;50.950;11.108;2023-07-09T10:10:44;98798.50;;;40.58;33.02
34586;BME280;20816;50.950;11.108;2023-07-09T10:13:23;98791.75;;;39.96;33.52
34586;BME280;20816;50.950;11.108;2023-07-09T10:16:03;98802.44;;;39.52;34.50
34586;BME280;20816;50.950;11.108;2023-07-09T10:24:00;98794.38;;;39.77;33.48
34586;BME280;20816;50.950;11.108;2023-07-09T10:26:39;98791.47;;;39.59;34.30
34586;BME280;20816;50.950;11.108;2023-07-09T10:32:02;98781.88;;;39.75;33.97
34586;BME280;20816;50.950;11.108;2023-07-09T10:34:47;98780.75;;;39.89;33.28
34586;BME280;20816;50.950;11.108;2023-07-09T10:40:10;98780.88;;;40.59;32.97
34586;BME280;20816;50.950;11.108;2023-07-09T10:42:46;98780.31;;;40.82;32.97
34586;BME280;20816;50.950;11.108;2023-07-09T10:45:23;98784.53;;;40.84;33.29
34586;BME280;20816;50.950;11.108;2023-07-09T10:48:01;98767.50;;;40.24;33.48
34586;BME280;20816;50.950;11.108;2023-07-09T10:50:38;98776.13;;;40.34;33.40
34586;BME280;20816;50.950;11.108;2023-07-09T10:53:21;98764.13;;;40.22;33.28
34586;BME280;20816;50.950;11.108;2023-07-09T10:55:56;98761.91;;;40.38;33.98
34586;BME280;20816;50.950;11.108;2023-07-09T11:01:16;98763.47;;;39.69;34.27
34586;BME280;20816;50.950;11.108;2023-07-09T11:03:50;98767.09;;;39.63;34.26
34586;BME280;20816;50.950;11.108;2023-07-09T11:06:33;98764.72;;;39.79;33.46
34586;BME280;20816;50.950;11.108;2023-07-09T11:09:02;98767.41;;;40.38;32.67
34586;BME280;20816;50.950;11.108;2023-07-09T11:11:38;98768.97;;;40.27;33.08
34586;BME280;20816;50.950;11.108;2023-07-09T11:16:49;98772.13;;;40.30;33.66
34586;BME280;20816;50.950;11.108;2023-07-09T11:19:18;98762.03;;;40.81;32.67
34586;BME280;20816;50.950;11.108;2023-07-09T11:22:22;98759.00;;;40.96;32.48
34586;BME280;20816;50.950;11.108;2023-07-09T11:27:26;98757.31;;;39.73;33.79
34586;BME280;20816;50.950;11.108;2023-07-09T11:30:02;98754.06;;;40.03;34.30
34586;BME280;20816;50.950;11.108;2023-07-09T11:32:29;98752.16;;;40.42;33.05
34586;BME280;20816;50.950;11.108;2023-07-09T11:35:07;98754.06;;;40.03;34.16
34586;BME280;20816;50.950;11.108;2023-07-09T11:37:44;98743.03;;;40.03;33.43
34586;BME280;20816;50.950;11.108;2023-07-09T11:40:12;98750.44;;;40.47;32.52
34586;BME280;20816;50.950;11.108;2023-07-09T11:42:59;98748.91;;;40.83;33.00
34586;BME280;20816;50.950;11.108;2023-07-09T11:45:28;98739.75;;;41.14;32.87
34586;BME280;20816;50.950;11.108;2023-07-09T11:50:46;98733.31;;;41.20;32.96
34586;BME280;20816;50.950;11.108;2023-07-09T11:56:20;98721.13;;;40.53;32.82
34586;BME280;20816;50.950;11.108;2023-07-09T11:58:48;98719.47;;;41.02;32.69
34586;BME280;20816;50.950;11.108;2023-07-09T12:01:19;98731.91;;;41.11;32.80
34586;BME280;20816;50.950;11.108;2023-07-09T12:03:47;98732.91;;;40.35;33.43
34586;BME280;20816;50.950;11.108;2023-07-09T12:06:21;98726.34;;;40.29;34.38
34586;BME280;20816;50.950;11.108;2023-07-09T12:08:50;98728.19;;;40.04;34.96
34586;BME280;20816;50.950;11.108;2023-07-09T12:11:19;98719.91;;;39.46;34.44
34586;BME280;20816;50.950;11.108;2023-07-09T12:13:46;98719.16;;;38.86;34.42
34586;BME280;20816;50.950;11.108;2023-07-09T12:18:51;98719.97;;;40.35;33.55
34586;BME280;20816;50.950;11.108;2023-07-09T12:21:18;98716.44;;;40.60;32.84
34586;BME280;20816;50.950;11.108;2023-07-09T12:23:46;98709.09;;;40.72;33.46
34586;BME280;20816;50.950;11.108;2023-07-09T12:26:15;98702.34;;;40.05;33.57
34586;BME280;20816;50.950;11.108;2023-07-09T12:28:42;98704.59;;;40.53;33.78
34586;BME280;20816;50.950;11.108;2023-07-09T12:31:13;98694.69;;;40.70;33.51
34586;BME280;20816;50.950;11.108;2023-07-09T12:33:51;98707.41;;;41.21;33.52
34586;BME280;20816;50.950;11.108;2023-07-09T12:36:19;98706.69;;;41.51;32.61
34586;BME280;20816;50.950;11.108;2023-07-09T12:38:50;98698.84;;;41.29;32.81
34586;BME280;20816;50.950;11.108;2023-07-09T12:41:39;98693.47;;;40.66;34.10
34586;BME280;20816;50.950;11.108;2023-07-09T12:44:22;98682.72;;;41.08;33.28
34586;BME280;20816;50.950;11.108;2023-07-09T12:46:52;98693.47;;;41.16;33.20
34586;BME280;20816;50.950;11.108;2023-07-09T12:49:22;98685.78;;;40.12;33.92
34586;BME280;20816;50.950;11.108;2023-07-09T12:51:50;98683.06;;;39.47;34.17
34586;BME280;20816;50.950;11.108;2023-07-09T12:54:19;98680.66;;;40.15;34.19
34586;BME280;20816;50.950;11.108;2023-07-09T12:56:51;98685.94;;;39.78;34.75
34586;BME280;20816;50.950;11.108;2023-07-09T12:59:27;98684.53;;;39.56;34.14
34586;BME280;20816;50.950;11.108;2023-07-09T13:01:55;98685.22;;;40.03;34.28
34586;BME280;20816;50.950;11.108;2023-07-09T13:04:36;98682.09;;;39.86;33.96
34586;BME280;20816;50.950;11.108;2023-07-09T13:07:04;98682.41;;;40.41;34.43
34586;BME280;20816;50.950;11.108;2023-07-09T13:09:31;98679.47;;;40.04;34.43
34586;BME280;20816;50.950;11.108;2023-07-09T13:11:58;98678.41;;;40.94;33.93
34586;BME280;20816;50.950;11.108;2023-07-09T13:14:30;98677.81;;;41.10;33.52
34586;BME280;20816;50.950;11.108;2023-07-09T13:17:04;98674.66;;;41.31;33.51
34586;BME280;20816;50.950;11.108;2023-07-09T13:19:32;98668.94;;;41.08;33.09
34586;BME280;20816;50.950;11.108;2023-07-09T13:21:59;98669.44;;;39.78;35.33
34586;BME280;20816;50.950;11.108;2023-07-09T13:24:29;98667.00;;;39.44;34.90
34586;BME280;20816;50.950;11.108;2023-07-09T13:26:56;98668.75;;;39.25;34.51
34586;BME280;20816;50.950;11.108;2023-07-09T13:29:27;98661.88;;;39.54;34.98
34586;BME280;20816;50.950;11.108;2023-07-09T13:31:54;98663.19;;;39.45;35.00
34586;BME280;20816;50.950;11.108;2023-07-09T13:34:29;98665.13;;;39.38;34.57
34586;BME280;20816;50.950;11.108;2023-07-09T13:37:00;98664.59;;;38.69;36.21
34586;BME280;20816;50.950;11.108;2023-07-09T13:39:26;98660.75;;;38.44;35.01
34586;BME280;20816;50.950;11.108;2023-07-09T13:41:54;98659.06;;;38.83;35.45
34586;BME280;20816;50.950;11.108;2023-07-09T13:44:27;98644.25;;;39.04;35.87